Time;durP1;ratioP1;P1;durP2;ratioP2;P2;SDS_P1;SDS_P2;PMS_P1;PMS_P2;Temp;Humidity;BMP_temperature;BMP_pressure;BME280_temperature;BME280_humidity;BME280_pressure;Samples;Min_cycle;Max_cycle;Signal;HPM_P1;HPM_P2
2022/04/01 00:00:15;;;;;;;2.38;0.60;;;0.90;99.90;;;;;;5004257;28;20112;-76
2022/04/01 00:02:44;;;;;;;2.30;0.70;;;0.90;99.90;;;;;;5003141;28;20534;-78
2022/04/01 00:05:10;;;;;;;1.60;0.75;;;0.90;99.90;;;;;;5019719;28;20049;-77
2022/04/01 00:07:38;;;;;;;1.63;0.52;;;0.90;99.90;;;;;;4995567;28;20036;-77
2022/04/01 00:10:04;;;;;;;2.20;0.60;;;0.90;99.90;;;;;;5019221;28;20030;-78
2022/04/01 00:12:30;;;;;;;2.33;0.70;;;0.80;99.90;;;;;;4995982;28;20029;-76
2022/04/01 00:14:56;;;;;;;2.70;0.80;;;0.80;99.90;;;;;;5017602;28;20163;-77
2022/04/01 00:17:22;;;;;;;2.20;0.70;;;0.80;99.90;;;;;;5008033;28;20041;-76
2022/04/01 00:19:48;;;;;;;3.10;0.70;;;0.80;99.90;;;;;;5003854;28;20262;-77
2022/04/01 00:22:14;;;;;;;4.32;0.70;;;0.80;99.90;;;;;;5012356;28;20475;-77
2022/04/01 00:24:40;;;;;;;2.90;0.73;;;0.80;99.90;;;;;;5002285;28;20037;-78
2022/04/01 00:27:05;;;;;;;1.70;0.60;;;0.80;99.90;;;;;;5018725;28;20036;-78
2022/04/01 00:29:31;;;;;;;1.70;0.70;;;0.80;99.90;;;;;;4996893;28;20030;-77
2022/04/01 00:32:01;;;;;;;1.60;0.63;;;0.80;99.90;;;;;;5019815;28;20029;-77
2022/04/01 00:34:28;;;;;;;1.77;0.60;;;0.80;99.90;;;;;;4982089;28;20642;-77
2022/04/01 00:36:55;;;;;;;2.53;1.00;;;0.80;99.90;;;;;;4995742;28;20044;-77
2022/04/01 00:39:22;;;;;;;2.20;1.00;;;0.80;99.90;;;;;;5009767;28;20067;-77
2022/04/01 00:41:49;;;;;;;1.50;0.68;;;0.70;99.90;;;;;;4975164;28;20037;-77
2022/04/01 00:44:20;;;;;;;1.70;0.60;;;0.70;99.90;;;;;;4996672;28;20065;-76
2022/04/01 00:46:56;;;;;;;2.35;0.80;;;0.80;99.90;;;;;;5018938;28;20420;-76
2022/04/01 00:49:23;;;;;;;2.92;1.00;;;0.70;99.90;;;;;;4997493;28;20030;-77
2022/04/01 00:51:50;;;;;;;2.53;0.70;;;0.70;99.90;;;;;;5001805;28;20072;-77
2022/04/01 00:54:16;;;;;;;1.85;0.80;;;0.70;99.90;;;;;;4996138;28;20029;-77
2022/04/01 00:56:43;;;;;;;1.60;0.60;;;0.70;99.90;;;;;;4995374;28;20120;-77
2022/04/01 00:59:10;;;;;;;2.13;1.00;;;0.70;99.90;;;;;;5000856;28;20072;-77
2022/04/01 01:01:37;;;;;;;1.77;0.80;;;0.70;99.90;;;;;;5001364;28;20038;-77
2022/04/01 01:04:04;;;;;;;1.77;0.85;;;0.70;99.90;;;;;;4995942;28;20037;-76
2022/04/01 01:06:31;;;;;;;1.63;0.70;;;0.70;99.90;;;;;;5000588;28;20037;-77
2022/04/01 01:08:58;;;;;;;2.13;1.08;;;0.70;99.90;;;;;;4963210;28;20132;-77
2022/04/01 01:11:25;;;;;;;2.47;1.20;;;0.70;99.90;;;;;;5017358;28;20029;-77
2022/04/01 01:13:52;;;;;;;2.85;1.42;;;0.70;99.90;;;;;;5000555;28;20105;-77
2022/04/01 01:16:19;;;;;;;1.85;1.02;;;0.70;99.90;;;;;;5001724;28;20493;-77
2022/04/01 01:18:45;;;;;;;2.05;0.98;;;0.70;99.90;;;;;;4994675;28;20484;-77
2022/04/01 01:21:11;;;;;;;2.75;1.35;;;0.70;99.90;;;;;;4984804;28;20494;-76
2022/04/01 01:23:37;;;;;;;3.08;1.42;;;0.60;99.90;;;;;;4983519;28;20141;-77
2022/04/01 01:26:03;;;;;;;2.33;0.90;;;0.60;99.90;;;;;;5001253;28;20080;-77
2022/04/01 01:28:29;;;;;;;4.10;1.13;;;0.70;99.90;;;;;;4999120;28;20034;-77
2022/04/01 01:30:54;;;;;;;2.15;1.15;;;0.60;99.90;;;;;;4978427;28;20424;-77
2022/04/01 01:33:24;;;;;;;2.85;1.20;;;0.60;99.90;;;;;;5017716;28;20033;-76
2022/04/01 01:35:49;;;;;;;2.22;0.90;;;0.60;99.90;;;;;;4979056;28;20092;-76
2022/04/01 01:38:19;;;;;;;2.83;1.70;;;0.60;99.90;;;;;;5007564;28;20648;-76
2022/04/01 01:40:45;;;;;;;2.92;1.90;;;0.60;99.90;;;;;;5001073;28;20034;-76
2022/04/01 01:43:12;;;;;;;2.83;1.25;;;0.60;99.90;;;;;;4974294;28;20029;-76
2022/04/01 01:45:37;;;;;;;3.22;1.50;;;0.50;99.90;;;;;;5001665;28;20040;-76
2022/04/01 01:48:04;;;;;;;2.80;1.70;;;0.60;99.90;;;;;;4995218;28;20030;-76
2022/04/01 01:55:58;;;;;;;4.20;2.95;;;0.50;99.90;;;;;;4999785;28;20037;-76
2022/04/01 01:58:23;;;;;;;4.60;3.40;;;0.50;99.90;;;;;;4999761;28;20179;-76
2022/04/01 02:00:49;;;;;;;4.22;2.97;;;0.50;99.90;;;;;;4993159;28;20034;-77
2022/04/01 02:03:15;;;;;;;5.05;3.95;;;0.50;99.90;;;;;;5014676;28;20033;-76
2022/04/01 02:05:41;;;;;;;5.80;4.03;;;0.50;99.90;;;;;;5015878;28;20037;-77
2022/04/01 02:08:07;;;;;;;5.88;3.92;;;0.50;99.90;;;;;;4999755;28;20029;-77
2022/04/01 02:10:33;;;;;;;5.57;4.10;;;0.50;99.90;;;;;;5011618;28;20410;-77
2022/04/01 02:12:58;;;;;;;5.20;3.67;;;0.50;99.90;;;;;;5016174;28;20032;-77
2022/04/01 02:15:25;;;;;;;5.75;4.90;;;0.50;99.90;;;;;;4999559;28;20033;-76
2022/04/01 02:17:50;;;;;;;5.82;3.83;;;0.40;99.90;;;;;;5000060;28;20040;-77
2022/04/01 02:20:16;;;;;;;5.82;4.15;;;0.50;99.90;;;;;;4983021;28;21015;-76
2022/04/01 02:22:44;;;;;;;4.20;2.95;;;0.50;99.90;;;;;;4994217;28;20068;-77
2022/04/01 02:25:13;;;;;;;3.75;3.15;;;0.50;99.90;;;;;;4983504;28;20502;-77
2022/04/01 02:27:39;;;;;;;4.80;3.17;;;0.50;99.90;;;;;;4995522;28;22066;-77
2022/04/01 02:30:12;;;;;;;3.25;2.22;;;0.50;99.90;;;;;;4983284;28;20107;-77
2022/04/01 02:32:47;;;;;;;3.42;2.17;;;0.50;99.90;;;;;;5001036;28;20490;-77
2022/04/01 02:35:25;;;;;;;3.00;1.88;;;0.50;99.90;;;;;;4993676;28;20490;-77
2022/04/01 02:37:50;;;;;;;4.25;2.85;;;0.50;99.90;;;;;;4998552;28;20036;-77
2022/04/01 02:40:16;;;;;;;4.07;2.40;;;0.50;99.90;;;;;;4998982;28;20033;-77
2022/04/01 02:42:42;;;;;;;3.38;2.22;;;0.50;99.90;;;;;;5018308;28;20034;-77
2022/04/01 02:45:13;;;;;;;4.20;2.08;;;0.50;99.90;;;;;;4998781;28;20437;-77
2022/04/01 02:47:40;;;;;;;4.30;1.92;;;0.40;99.90;;;;;;4982152;28;20549;-78
2022/04/01 02:50:07;;;;;;;3.92;1.90;;;0.50;99.90;;;;;;5016360;28;20037;-76
2022/04/01 02:52:33;;;;;;;3.85;1.75;;;0.40;99.90;;;;;;4996526;28;20049;-77
2022/04/01 02:54:59;;;;;;;3.63;2.25;;;0.50;99.90;;;;;;5015563;28;20292;-77
2022/04/01 02:57:25;;;;;;;4.75;3.20;;;0.50;99.90;;;;;;4995516;28;20255;-77
2022/04/01 02:59:52;;;;;;;3.15;2.50;;;0.40;99.90;;;;;;4993338;28;20026;-77
2022/04/01 03:02:18;;;;;;;4.28;2.03;;;0.40;99.90;;;;;;4997875;28;20034;-77
2022/04/01 03:04:45;;;;;;;3.25;1.70;;;0.40;99.90;;;;;;5014977;28;20132;-77
2022/04/01 03:07:11;;;;;;;3.05;1.80;;;0.50;99.90;;;;;;4999222;28;20081;-77
2022/04/01 03:09:36;;;;;;;3.33;1.52;;;0.40;99.90;;;;;;4999279;28;20045;-77
2022/04/01 03:12:16;;;;;;;3.03;1.38;;;0.50;99.90;;;;;;4984523;28;20029;-77
2022/04/01 03:14:48;;;;;;;3.20;1.58;;;0.50;99.90;;;;;;5001241;28;20045;-77
2022/04/01 03:17:33;;;;;;;4.13;1.92;;;0.50;99.90;;;;;;5001078;28;20033;-77
2022/04/01 03:20:02;;;;;;;2.58;1.13;;;0.40;99.90;;;;;;4973104;28;20025;-77
2022/04/01 03:22:30;;;;;;;4.05;1.65;;;0.50;99.90;;;;;;4992919;28;20149;-78
2022/04/01 03:24:56;;;;;;;2.58;1.40;;;0.40;99.90;;;;;;4992909;28;20033;-77
2022/04/01 03:27:22;;;;;;;3.05;1.58;;;0.40;99.90;;;;;;4998732;28;20021;-77
2022/04/01 03:29:48;;;;;;;2.97;1.48;;;0.40;99.90;;;;;;4978108;28;20033;-78
2022/04/01 03:32:15;;;;;;;2.80;1.85;;;0.50;99.90;;;;;;4977114;28;20037;-77
2022/04/01 03:34:43;;;;;;;3.25;2.05;;;0.40;99.90;;;;;;4994415;28;20029;-77
2022/04/01 03:37:10;;;;;;;3.83;2.13;;;0.40;99.90;;;;;;4994332;28;20083;-78
2022/04/01 03:39:36;;;;;;;3.25;1.98;;;0.40;99.90;;;;;;5005793;28;20176;-78
2022/04/01 03:42:06;;;;;;;6.32;2.67;;;0.40;99.90;;;;;;4984590;28;20140;-77
2022/04/01 03:44:36;;;;;;;3.97;2.60;;;0.30;99.90;;;;;;4992855;28;20382;-77
2022/04/01 03:47:26;;;;;;;4.13;2.22;;;0.40;99.90;;;;;;5001732;28;20133;-77
2022/04/01 03:49:58;;;;;;;3.38;1.83;;;0.40;99.90;;;;;;4976850;28;20050;-78
2022/04/01 03:52:24;;;;;;;5.35;2.40;;;0.40;99.90;;;;;;4996135;28;20087;-78
2022/04/01 03:54:54;;;;;;;3.97;2.70;;;0.40;99.90;;;;;;5001376;28;20057;-77
2022/04/01 03:57:41;;;;;;;3.60;2.05;;;0.40;99.90;;;;;;5001978;28;20040;-77
2022/04/01 04:00:25;;;;;;;4.38;1.90;;;0.40;99.90;;;;;;5018905;28;20040;-77
2022/04/01 04:02:53;;;;;;;4.35;1.85;;;0.40;99.90;;;;;;4985562;28;20399;-78
2022/04/01 04:05:27;;;;;;;3.33;1.65;;;0.30;99.90;;;;;;5001248;28;20504;-77
2022/04/01 04:07:54;;;;;;;3.47;1.60;;;0.30;99.90;;;;;;5019763;28;20032;-77
2022/04/01 04:10:27;;;;;;;3.22;1.60;;;0.30;99.90;;;;;;4981500;28;20481;-77
2022/04/01 04:13:09;;;;;;;2.83;1.48;;;0.30;99.90;;;;;;4996609;28;20061;-77
2022/04/01 04:15:43;;;;;;;5.00;1.90;;;0.30;99.90;;;;;;5001202;28;20049;-77
2022/04/01 04:18:15;;;;;;;3.90;1.70;;;0.30;99.90;;;;;;5003316;28;20107;-77
2022/04/01 04:20:55;;;;;;;4.05;1.65;;;0.30;99.90;;;;;;4975801;28;20052;-76
2022/04/01 04:23:29;;;;;;;3.70;1.65;;;0.30;99.90;;;;;;5002304;28;20489;-77
2022/04/01 04:26:11;;;;;;;3.58;2.30;;;0.30;99.90;;;;;;5001237;28;20419;-78
2022/04/01 04:28:44;;;;;;;3.45;1.70;;;0.30;99.90;;;;;;4996322;28;20133;-77
2022/04/01 04:31:30;;;;;;;3.65;2.28;;;0.30;99.90;;;;;;4983279;28;20058;-77
2022/04/01 04:34:10;;;;;;;3.08;2.13;;;0.30;99.90;;;;;;4982423;28;20030;-78
2022/04/01 04:36:40;;;;;;;3.15;1.60;;;0.30;99.90;;;;;;5017841;28;20034;-77
2022/04/01 04:39:19;;;;;;;3.08;1.52;;;0.30;99.90;;;;;;4997170;28;20071;-77
2022/04/01 04:41:49;;;;;;;3.33;1.50;;;0.30;99.90;;;;;;4975641;28;20038;-77
2022/04/01 04:44:17;;;;;;;3.92;1.90;;;0.30;99.90;;;;;;4997168;28;20508;-77
2022/04/01 04:46:44;;;;;;;3.00;1.80;;;0.30;99.90;;;;;;5000832;28;20072;-77
2022/04/01 04:49:10;;;;;;;3.63;2.22;;;0.30;99.90;;;;;;5018375;28;20552;-78
2022/04/01 04:51:36;;;;;;;2.65;1.40;;;0.30;99.90;;;;;;5001976;28;20113;-77
2022/04/01 04:54:25;;;;;;;4.93;2.13;;;0.30;99.90;;;;;;4996336;28;20036;-77
2022/04/01 04:57:11;;;;;;;3.17;1.58;;;0.30;99.90;;;;;;4987206;28;20112;-77
2022/04/01 04:59:42;;;;;;;4.05;1.20;;;0.30;99.90;;;;;;4996177;28;20049;-77
2022/04/01 05:02:27;;;;;;;4.10;1.65;;;0.30;99.90;;;;;;5001350;28;20057;-77
2022/04/01 05:05:06;;;;;;;4.03;1.55;;;0.30;99.90;;;;;;5001635;28;20040;-76
2022/04/01 05:08:05;;;;;;;3.05;1.08;;;0.30;99.90;;;;;;5018012;28;20036;-76
2022/04/01 05:11:09;;;;;;;3.25;1.40;;;0.30;99.90;;;;;;5018248;28;20441;-77
2022/04/01 05:13:35;;;;;;;3.38;1.23;;;0.30;99.90;;;;;;5001423;28;20030;-77
2022/04/01 05:16:17;;;;;;;3.55;1.50;;;0.30;99.90;;;;;;4997340;28;20025;-77
2022/04/01 05:19:07;;;;;;;2.63;1.40;;;0.30;99.90;;;;;;5017478;28;20113;-77
2022/04/01 05:22:01;;;;;;;2.58;1.02;;;0.30;99.90;;;;;;5002564;28;20068;-77
2022/04/01 05:24:37;;;;;;;3.28;1.30;;;0.30;99.90;;;;;;4994613;28;20458;-77
2022/04/01 05:27:05;;;;;;;2.63;1.45;;;0.30;99.90;;;;;;4978100;28;20029;-77
2022/04/01 05:30:05;;;;;;;3.63;1.25;;;0.30;99.90;;;;;;5017555;28;20044;-77
2022/04/01 05:32:37;;;;;;;2.38;0.85;;;0.30;99.90;;;;;;5014299;28;20145;-77
2022/04/01 05:35:04;;;;;;;2.25;0.90;;;0.20;99.90;;;;;;5014993;28;20037;-77
2022/04/01 05:37:33;;;;;;;2.70;1.10;;;0.30;99.90;;;;;;5015835;28;20348;-77
2022/04/01 05:40:07;;;;;;;3.72;1.10;;;0.20;99.90;;;;;;5008945;28;20082;-77
2022/04/01 05:42:37;;;;;;;3.13;1.10;;;0.30;99.90;;;;;;4998416;28;20486;-77
2022/04/01 05:45:30;;;;;;;2.42;1.00;;;0.20;99.90;;;;;;5016220;28;20053;-77
2022/04/01 05:47:58;;;;;;;2.75;1.08;;;0.20;99.90;;;;;;4978354;28;20381;-76
2022/04/01 05:50:26;;;;;;;3.03;0.60;;;0.20;99.90;;;;;;4978056;28;20032;-77
2022/04/01 05:52:53;;;;;;;4.53;0.77;;;0.30;99.90;;;;;;4999432;28;20080;-77
2022/04/01 05:55:25;;;;;;;3.67;1.00;;;0.30;99.90;;;;;;4993265;28;20029;-77
2022/04/01 05:57:53;;;;;;;2.00;0.80;;;0.20;99.90;;;;;;4995219;28;20482;-77
2022/04/01 06:00:19;;;;;;;4.10;1.17;;;0.20;99.90;;;;;;4999197;28;20489;-76
2022/04/01 06:03:39;;;;;;;3.83;0.88;;;0.20;99.90;;;;;;4990279;28;20048;-77
2022/04/01 06:06:21;;;;;;;1.98;0.75;;;0.20;99.90;;;;;;4988517;28;20410;-77
2022/04/01 06:09:03;;;;;;;2.75;0.95;;;0.30;99.90;;;;;;4986557;28;20496;-77
2022/04/01 06:11:50;;;;;;;2.70;0.73;;;0.30;99.90;;;;;;5015646;28;20045;-77
2022/04/01 06:14:55;;;;;;;2.45;0.85;;;0.30;99.90;;;;;;4996438;28;20044;-77
2022/04/01 06:18:05;;;;;;;3.03;0.70;;;0.30;99.90;;;;;;5015435;28;20048;-78
2022/04/01 06:20:34;;;;;;;2.65;0.70;;;0.30;99.90;;;;;;4979875;28;20034;-78
2022/04/01 06:23:26;;;;;;;2.75;0.60;;;0.30;99.90;;;;;;5014100;28;20037;-77
2022/04/01 06:25:59;;;;;;;2.35;0.70;;;0.40;99.90;;;;;;4992325;28;20050;-78
2022/04/01 06:28:39;;;;;;;1.95;0.40;;;0.40;99.90;;;;;;4991832;28;20112;-78
2022/04/01 06:31:06;;;;;;;1.52;0.60;;;0.40;99.90;;;;;;4997465;28;20029;-78
2022/04/01 06:33:54;;;;;;;1.90;0.63;;;0.40;99.90;;;;;;4971584;28;20037;-77
2022/04/01 06:36:50;;;;;;;3.58;0.70;;;0.40;99.90;;;;;;4983036;28;20040;-78
2022/04/01 06:39:49;;;;;;;2.38;0.60;;;0.40;99.90;;;;;;4991799;28;20725;-79
2022/04/01 06:42:22;;;;;;;2.15;0.80;;;0.40;99.90;;;;;;5009237;28;22098;-77
2022/04/01 06:45:10;;;;;;;3.13;0.70;;;0.40;99.90;;;;;;4973367;28;20037;-77
2022/04/01 06:48:11;;;;;;;1.70;0.70;;;0.40;99.90;;;;;;4948116;28;20078;-77
2022/04/01 06:50:57;;;;;;;2.45;0.75;;;0.40;99.90;;;;;;4940187;28;20129;-77
2022/04/01 06:53:46;;;;;;;2.42;0.60;;;0.40;99.90;;;;;;4946519;28;20126;-77
2022/04/01 06:56:32;;;;;;;3.40;0.70;;;0.50;99.90;;;;;;4933763;28;20046;-77
2022/04/01 06:58:58;;;;;;;4.22;0.60;;;0.40;99.90;;;;;;4930414;28;20035;-78
2022/04/01 07:01:25;;;;;;;2.67;0.50;;;0.40;99.90;;;;;;4923250;28;20042;-77
2022/04/01 07:03:53;;;;;;;2.50;0.68;;;0.50;99.90;;;;;;4934439;28;20178;-78
2022/04/01 07:06:20;;;;;;;3.88;0.60;;;0.40;99.90;;;;;;4946825;28;20272;-78
2022/04/01 07:08:47;;;;;;;1.80;0.60;;;0.50;99.90;;;;;;4939041;28;20054;-78
2022/04/01 07:11:17;;;;;;;2.85;0.50;;;0.50;99.90;;;;;;4923674;28;20035;-78
2022/04/01 07:13:42;;;;;;;2.43;0.60;;;0.50;99.90;;;;;;4934954;28;20082;-78
2022/04/01 07:16:10;;;;;;;2.58;0.80;;;0.50;99.90;;;;;;4946990;28;20787;-78
2022/04/01 07:18:36;;;;;;;2.58;0.60;;;0.50;99.90;;;;;;4939433;28;20043;-77
2022/04/01 07:21:02;;;;;;;1.70;0.70;;;0.50;99.90;;;;;;4947853;28;20034;-77
2022/04/01 07:23:28;;;;;;;2.35;0.60;;;0.50;99.90;;;;;;5009121;28;20399;-78
2022/04/01 07:25:53;;;;;;;2.28;0.70;;;0.50;99.90;;;;;;5010196;28;20125;-77
2022/04/01 07:28:19;;;;;;;2.90;0.65;;;0.60;99.90;;;;;;4962784;28;20038;-77
2022/04/01 07:30:45;;;;;;;2.85;0.70;;;0.60;99.90;;;;;;4994804;28;20034;-78
2022/04/01 07:33:11;;;;;;;2.30;0.98;;;0.60;99.90;;;;;;4995691;28;20057;-78
2022/04/01 07:35:37;;;;;;;2.05;0.70;;;0.60;99.90;;;;;;4997831;28;20117;-77
2022/04/01 07:38:06;;;;;;;3.15;0.55;;;0.60;99.90;;;;;;4995964;28;20026;-78
2022/04/01 07:40:32;;;;;;;1.77;0.50;;;0.60;99.90;;;;;;4974689;28;20032;-79
2022/04/01 07:42:58;;;;;;;3.80;0.60;;;0.70;99.90;;;;;;4970835;28;20030;-79
2022/04/01 07:45:23;;;;;;;1.90;0.70;;;0.60;99.90;;;;;;4996624;28;20810;-78
2022/04/01 07:47:51;;;;;;;2.25;0.60;;;0.70;99.90;;;;;;4995638;28;20040;-77
2022/04/01 07:50:20;;;;;;;1.45;0.43;;;0.70;99.90;;;;;;5000458;28;20048;-79
2022/04/01 07:52:46;;;;;;;2.20;0.50;;;0.70;99.90;;;;;;4963177;28;20423;-78
2022/04/01 07:55:16;;;;;;;2.22;0.50;;;0.80;99.90;;;;;;4996742;28;20141;-78
2022/04/01 07:57:43;;;;;;;1.98;0.50;;;0.70;99.90;;;;;;4959483;28;20034;-78
2022/04/01 08:00:10;;;;;;;2.53;0.40;;;0.90;99.90;;;;;;5012419;28;20037;-78
2022/04/01 08:02:39;;;;;;;1.40;0.47;;;0.90;99.90;;;;;;4996257;28;20057;-78
2022/04/01 08:05:07;;;;;;;2.83;0.40;;;0.90;99.90;;;;;;4997529;28;20071;-78
2022/04/01 08:07:32;;;;;;;1.30;0.40;;;1.00;99.90;;;;;;4985536;28;20084;-78
2022/04/01 08:09:58;;;;;;;1.60;0.43;;;0.90;99.90;;;;;;4997182;28;20029;-78
2022/04/01 08:12:23;;;;;;;1.42;0.40;;;1.00;99.90;;;;;;4992121;28;20064;-77
2022/04/01 08:14:49;;;;;;;3.58;0.50;;;1.10;99.90;;;;;;4997491;28;20483;-79
2022/04/01 08:17:15;;;;;;;1.92;0.38;;;1.00;99.90;;;;;;4997424;28;20030;-78
2022/04/01 08:19:42;;;;;;;1.30;0.40;;;1.10;99.90;;;;;;4987000;28;20476;-78
2022/04/01 08:22:09;;;;;;;2.10;0.60;;;1.10;99.90;;;;;;4976108;28;20360;-79
2022/04/01 08:24:35;;;;;;;1.95;0.47;;;1.10;99.90;;;;;;5012977;28;20044;-78
2022/04/01 08:27:01;;;;;;;1.70;0.40;;;1.20;99.90;;;;;;4987403;28;20018;-78
2022/04/01 08:29:29;;;;;;;2.05;0.38;;;1.20;99.90;;;;;;4970198;28;20141;-79
2022/04/01 08:31:56;;;;;;;1.80;0.30;;;1.20;99.90;;;;;;4997792;28;20069;-79
2022/04/01 08:34:22;;;;;;;1.08;0.40;;;1.20;99.90;;;;;;4990768;28;20041;-79
2022/04/01 08:36:48;;;;;;;1.48;0.40;;;1.20;99.90;;;;;;4974063;28;20351;-78
2022/04/01 08:39:14;;;;;;;1.58;0.43;;;1.20;99.90;;;;;;4991511;28;20041;-79
2022/04/01 08:41:40;;;;;;;1.58;0.30;;;1.20;99.90;;;;;;4999033;28;20120;-79
2022/04/01 08:44:06;;;;;;;2.20;0.30;;;1.30;99.90;;;;;;4974909;28;20164;-79
2022/04/01 08:46:32;;;;;;;1.42;0.40;;;1.30;99.90;;;;;;5010810;28;20040;-79
2022/04/01 08:48:58;;;;;;;2.55;0.40;;;1.30;99.90;;;;;;4994932;28;20085;-79
2022/04/01 08:51:23;;;;;;;2.33;0.40;;;1.30;99.90;;;;;;4989707;28;20067;-79
2022/04/01 08:53:49;;;;;;;1.50;0.30;;;1.40;99.90;;;;;;4991611;28;20042;-78
2022/04/01 08:56:19;;;;;;;1.20;0.50;;;1.40;99.90;;;;;;4997691;28;20480;-79
2022/04/01 08:58:45;;;;;;;1.27;0.32;;;1.40;99.90;;;;;;4979840;28;20072;-78
2022/04/01 09:01:12;;;;;;;1.63;0.40;;;1.50;99.90;;;;;;4974228;28;20076;-79
2022/04/01 09:03:37;;;;;;;1.35;0.30;;;1.60;99.90;;;;;;4980428;28;20032;-79
2022/04/01 09:06:05;;;;;;;2.08;0.40;;;1.60;99.90;;;;;;5011931;28;20034;-78
2022/04/01 09:08:37;;;;;;;1.80;0.32;;;1.60;99.90;;;;;;4968102;28;20040;-78
2022/04/01 09:11:06;;;;;;;1.20;0.40;;;1.70;99.90;;;;;;4976073;28;20406;-79
2022/04/01 09:13:46;;;;;;;2.10;0.55;;;1.80;99.90;;;;;;4991133;28;20029;-79
2022/04/01 09:16:38;;;;;;;1.35;0.47;;;1.80;99.90;;;;;;4989771;28;20347;-78
2022/04/01 09:19:06;;;;;;;2.10;0.50;;;1.90;99.90;;;;;;5007069;28;20088;-77
2022/04/01 09:21:39;;;;;;;2.72;0.57;;;2.00;99.90;;;;;;4997135;28;20042;-79
2022/04/01 09:24:05;;;;;;;2.55;0.75;;;1.90;99.90;;;;;;4980930;28;20151;-78
2022/04/01 09:26:37;;;;;;;3.22;0.60;;;2.00;99.90;;;;;;4974661;28;20129;-78
2022/04/01 09:29:05;;;;;;;1.83;0.60;;;2.10;99.90;;;;;;5007652;28;20042;-78
2022/04/01 09:31:41;;;;;;;1.83;0.50;;;2.20;99.90;;;;;;4995074;28;20044;-78
2022/04/01 09:34:12;;;;;;;3.78;0.50;;;2.20;99.90;;;;;;4990152;28;20033;-78
2022/04/01 09:36:41;;;;;;;2.78;0.80;;;2.30;99.90;;;;;;4991551;28;20038;-77
2022/04/01 09:39:16;;;;;;;1.95;0.60;;;2.20;99.90;;;;;;5008436;28;20066;-77
2022/04/01 09:41:47;;;;;;;3.35;0.80;;;2.20;99.90;;;;;;4997163;28;20533;-77
2022/04/01 09:44:16;;;;;;;2.47;0.85;;;2.30;99.90;;;;;;5005278;28;20453;-79
2022/04/01 09:46:44;;;;;;;2.10;0.60;;;2.30;99.90;;;;;;5010399;28;20427;-79
2022/04/01 09:49:27;;;;;;;1.88;0.50;;;2.20;99.90;;;;;;4978533;28;20040;-78
2022/04/01 09:51:52;;;;;;;1.92;0.60;;;2.30;99.90;;;;;;5004814;28;20149;-79
2022/04/01 09:54:18;;;;;;;2.45;0.70;;;2.40;99.90;;;;;;4995394;28;20063;-78
2022/04/01 09:56:46;;;;;;;3.08;0.95;;;2.40;99.90;;;;;;4972910;28;20088;-78
2022/04/01 09:59:15;;;;;;;2.90;0.90;;;2.40;99.90;;;;;;4997201;28;20434;-78
2022/04/01 10:01:42;;;;;;;2.67;0.80;;;2.40;99.90;;;;;;4988245;28;20406;-78
2022/04/01 10:04:09;;;;;;;3.75;0.93;;;2.40;99.90;;;;;;4973505;28;20041;-79
2022/04/01 10:06:36;;;;;;;1.80;0.70;;;2.50;99.90;;;;;;4992726;28;20038;-79
2022/04/01 10:09:05;;;;;;;2.60;0.70;;;2.40;99.90;;;;;;4993158;28;20030;-79
2022/04/01 10:11:31;;;;;;;3.90;1.00;;;2.40;99.90;;;;;;4969827;28;20549;-79
2022/04/01 10:14:03;;;;;;;2.67;0.90;;;2.40;99.90;;;;;;4989917;28;20061;-79
2022/04/01 10:16:33;;;;;;;4.38;0.93;;;2.50;99.90;;;;;;4993231;28;20038;-80
2022/04/01 10:19:03;;;;;;;2.58;0.70;;;2.60;99.90;;;;;;5001233;28;20061;-78
2022/04/01 10:21:30;;;;;;;3.22;1.05;;;2.60;99.90;;;;;;4994552;28;20077;-79
2022/04/01 10:24:14;;;;;;;2.97;0.90;;;2.60;99.90;;;;;;4995977;28;20425;-80
2022/04/01 10:27:09;;;;;;;4.15;1.23;;;2.60;99.90;;;;;;4995093;28;20403;-80
2022/04/01 10:29:35;;;;;;;2.00;0.77;;;2.50;99.90;;;;;;4987077;28;20046;-77
2022/04/01 10:32:25;;;;;;;2.95;1.00;;;2.60;99.90;;;;;;4994715;28;20092;-78
2022/04/01 10:34:53;;;;;;;2.33;0.82;;;2.50;99.90;;;;;;4985538;28;20137;-80
2022/04/01 10:37:22;;;;;;;2.40;0.90;;;2.50;99.90;;;;;;4991410;28;20033;-79
2022/04/01 10:39:48;;;;;;;3.45;1.13;;;2.50;99.90;;;;;;5013002;28;20209;-79
2022/04/01 10:42:13;;;;;;;3.78;1.10;;;2.50;99.90;;;;;;4991372;28;20061;-78
2022/04/01 10:44:44;;;;;;;2.42;0.95;;;2.50;99.90;;;;;;4975275;28;20151;-79
2022/04/01 10:47:09;;;;;;;3.03;1.05;;;2.60;99.90;;;;;;5006994;28;20125;-79
2022/04/01 10:52:23;;;;;;;3.08;1.25;;;2.60;99.90;;;;;;5006992;28;20498;-79
2022/04/01 10:55:05;;;;;;;4.93;1.50;;;2.60;99.90;;;;;;4998102;28;20025;-78
2022/04/01 10:57:34;;;;;;;2.38;1.08;;;2.60;99.90;;;;;;4976834;28;20516;-79
2022/04/01 11:00:04;;;;;;;3.63;1.23;;;2.70;99.90;;;;;;5012910;28;20033;-78
2022/04/01 11:02:30;;;;;;;4.70;1.50;;;2.80;99.90;;;;;;5018276;28;20512;-79
2022/04/01 11:04:57;;;;;;;4.05;1.45;;;2.90;99.90;;;;;;4975701;28;20041;-79
2022/04/01 11:07:23;;;;;;;4.75;1.48;;;2.90;99.90;;;;;;5000017;28;20284;-79
2022/04/01 11:09:50;;;;;;;6.05;1.40;;;2.90;99.90;;;;;;4995415;28;20397;-78
2022/04/01 11:12:19;;;;;;;4.45;1.10;;;2.80;99.90;;;;;;4980718;28;20116;-79
2022/04/01 11:14:56;;;;;;;2.35;1.05;;;2.80;99.90;;;;;;4984681;28;20136;-78
2022/04/01 11:17:24;;;;;;;3.17;1.13;;;3.00;99.90;;;;;;5017975;28;20026;-78
2022/04/01 11:20:13;;;;;;;2.17;1.02;;;3.30;99.90;;;;;;5001097;28;20541;-78
2022/04/01 11:22:43;;;;;;;3.40;1.00;;;3.20;99.90;;;;;;5016390;28;20402;-79
2022/04/01 11:25:27;;;;;;;2.42;0.93;;;3.20;99.90;;;;;;5015329;28;20064;-79
2022/04/01 11:27:56;;;;;;;2.88;1.30;;;3.10;99.90;;;;;;5001152;28;20025;-78
2022/04/01 11:30:28;;;;;;;5.22;1.10;;;3.10;99.90;;;;;;5000701;28;20041;-79
2022/04/01 11:32:55;;;;;;;3.20;1.27;;;3.00;99.90;;;;;;5013185;28;21816;-80
2022/04/01 11:35:22;;;;;;;3.45;1.38;;;3.00;99.90;;;;;;4994919;28;20084;-79
2022/04/01 11:37:49;;;;;;;2.17;0.80;;;3.00;99.90;;;;;;5017341;28;20029;-79
2022/04/01 11:40:25;;;;;;;3.55;1.10;;;3.10;99.90;;;;;;5016925;28;20048;-79
2022/04/01 11:43:02;;;;;;;4.10;1.60;;;3.10;99.90;;;;;;4976131;28;20419;-79
2022/04/01 11:45:31;;;;;;;3.60;1.40;;;3.10;99.90;;;;;;4999990;28;20052;-80
2022/04/01 11:47:57;;;;;;;2.58;1.42;;;3.10;99.90;;;;;;5002442;28;20026;-78
2022/04/01 11:50:24;;;;;;;2.60;1.10;;;3.30;99.90;;;;;;5001287;28;20469;-79
2022/04/01 11:52:55;;;;;;;3.67;1.38;;;3.40;99.90;;;;;;5018699;28;20057;-78
2022/04/01 11:55:28;;;;;;;3.50;1.30;;;3.40;99.90;;;;;;5001334;28;20184;-79
2022/04/01 11:57:57;;;;;;;3.22;1.52;;;3.50;99.90;;;;;;4984903;28;20029;-78
2022/04/01 12:00:26;;;;;;;3.30;1.70;;;3.40;99.90;;;;;;4974920;28;20033;-78
2022/04/01 12:02:53;;;;;;;2.53;1.35;;;3.50;99.90;;;;;;4995086;28;20048;-78
2022/04/01 12:05:20;;;;;;;3.30;1.52;;;3.80;99.90;;;;;;5015568;28;20047;-78
2022/04/01 12:10:38;;;;;;;3.13;1.20;;;3.90;99.90;;;;;;5015065;28;20037;-79
2022/04/01 12:13:07;;;;;;;2.88;1.20;;;4.00;99.90;;;;;;4975205;28;20037;-80
2022/04/01 12:15:42;;;;;;;2.70;1.17;;;3.90;99.90;;;;;;4977236;28;20038;-80
2022/04/01 12:18:10;;;;;;;2.70;1.30;;;3.90;99.90;;;;;;4998856;28;20037;-80
2022/04/01 12:20:43;;;;;;;4.60;1.58;;;3.90;99.90;;;;;;4997331;28;20037;-80
2022/04/01 12:23:10;;;;;;;2.80;1.60;;;3.80;99.90;;;;;;4993188;28;20112;-79
2022/04/01 12:25:37;;;;;;;3.80;1.60;;;3.70;99.90;;;;;;5016823;28;20044;-80
2022/04/01 12:28:07;;;;;;;6.82;2.05;;;3.50;99.90;;;;;;4998036;28;20044;-79
2022/04/01 12:30:40;;;;;;;3.03;1.52;;;3.50;99.90;;;;;;5014825;28;20128;-80
2022/04/01 12:33:15;;;;;;;3.67;1.48;;;3.50;99.90;;;;;;4994090;28;20135;-79
2022/04/01 12:35:57;;;;;;;3.05;1.75;;;3.30;99.90;;;;;;4994157;28;20044;-78
2022/04/01 12:38:24;;;;;;;4.65;2.72;;;3.30;99.90;;;;;;5014929;28;20037;-78
2022/04/01 12:40:58;;;;;;;5.07;2.95;;;3.10;99.90;;;;;;5012855;28;20030;-80
2022/04/01 12:43:46;;;;;;;4.03;1.52;;;3.20;99.90;;;;;;4973160;28;20029;-80
2022/04/01 12:46:14;;;;;;;2.28;1.35;;;3.30;99.90;;;;;;4992166;28;20047;-79
2022/04/01 12:48:54;;;;;;;3.50;1.83;;;3.70;99.90;;;;;;4997791;28;20060;-80
2022/04/01 12:51:25;;;;;;;2.33;1.17;;;3.70;99.90;;;;;;4973770;28;1058341;-80
2022/04/01 12:54:08;;;;;;;4.43;1.30;;;3.70;99.90;;;;;;4999344;28;20025;-79
2022/04/01 12:56:39;;;;;;;3.33;1.70;;;3.90;99.90;;;;;;5000245;28;20180;-79
2022/04/01 12:59:10;;;;;;;2.92;1.55;;;4.20;99.90;;;;;;5017711;28;20025;-79
2022/04/01 13:01:55;;;;;;;4.50;1.42;;;4.30;99.90;;;;;;5014227;28;20099;-79
2022/04/01 13:04:21;;;;;;;3.45;1.83;;;4.40;99.90;;;;;;5012063;28;20045;-79
2022/04/01 13:07:16;;;;;;;4.05;2.15;;;4.50;99.90;;;;;;5016776;28;20773;-79
2022/04/01 13:09:45;;;;;;;3.85;1.92;;;4.60;99.90;;;;;;5001801;28;20136;-79
2022/04/01 13:12:11;;;;;;;3.03;1.63;;;4.70;99.90;;;;;;5000842;28;20394;-80
2022/04/01 13:14:37;;;;;;;5.65;2.63;;;4.60;99.90;;;;;;5000121;28;20040;-80
2022/04/01 13:17:11;;;;;;;5.38;2.40;;;4.50;99.90;;;;;;5015681;28;20398;-79
2022/04/01 13:19:40;;;;;;;4.25;1.63;;;4.50;99.90;;;;;;4994957;28;20034;-80
2022/04/01 13:22:07;;;;;;;3.80;1.58;;;4.40;99.90;;;;;;4993459;28;20441;-79
2022/04/01 13:24:47;;;;;;;4.80;1.73;;;4.20;99.90;;;;;;5014831;28;20041;-79
2022/04/01 13:27:15;;;;;;;2.90;1.65;;;4.00;99.90;;;;;;4978333;28;20036;-79
2022/04/01 13:29:42;;;;;;;2.83;1.20;;;3.80;99.90;;;;;;4999177;28;20574;-80